Terminal Aerodrome Forecast
Issued by NWS Sterling, VA

Current Version | Previous Version | Graphics & Text | Print | Product List | Glossary On
Versions: 1 2 3 4 5 6 7 8 9 10 11 12 13 14 15
482
FTUS41 KLWX 231720
TAFMRB
TAF
KMRB 231720Z 2318/2418 15006KT P6SM FEW250
     FM241000 VRB03KT P6SM VCSH OVC070
     FM241400 18004KT P6SM BKN050=

USA.gov is the U.S. government's official web portal to all federal, state and local government web resources and services.